sensor_id;sensor_type;location;lat;lon;timestamp;pressure;altitude;pressure_sealevel;temperature;humidity
48035;BME280;33812;46.480;6.834;2023-07-31T00:00:47;93952.25;;;24.20;45.21
48035;BME280;33812;46.480;6.834;2023-07-31T00:04:49;93955.03;;;24.20;45.55
48035;BME280;33812;46.480;6.834;2023-07-31T00:08:50;93943.91;;;24.20;45.16
48035;BME280;33812;46.480;6.834;2023-07-31T00:12:52;93948.69;;;24.19;45.46
48035;BME280;33812;46.480;6.834;2023-07-31T00:16:55;93945.13;;;24.19;45.34
48035;BME280;33812;46.480;6.834;2023-07-31T00:20:57;93959.78;;;24.19;45.02
48035;BME280;33812;46.480;6.834;2023-07-31T00:24:59;93948.69;;;24.19;45.09
48035;BME280;33812;46.480;6.834;2023-07-31T00:29:01;93953.47;;;24.19;45.26
48035;BME280;33812;46.480;6.834;2023-07-31T00:33:04;93955.47;;;24.18;44.98
48035;BME280;33812;46.480;6.834;2023-07-31T00:37:06;93946.38;;;24.18;45.27
48035;BME280;33812;46.480;6.834;2023-07-31T00:41:07;93938.81;;;24.18;45.05
48035;BME280;33812;46.480;6.834;2023-07-31T00:45:09;93934.44;;;24.17;45.05
48035;BME280;33812;46.480;6.834;2023-07-31T00:49:15;93935.25;;;24.18;45.07
48035;BME280;33812;46.480;6.834;2023-07-31T00:53:18;93939.25;;;24.17;44.97
48035;BME280;33812;46.480;6.834;2023-07-31T00:57:19;93928.88;;;24.17;44.82
48035;BME280;33812;46.480;6.834;2023-07-31T01:01:21;93928.13;;;24.17;44.85
48035;BME280;33812;46.480;6.834;2023-07-31T01:05:29;93913.47;;;24.16;44.75
48035;BME280;33812;46.480;6.834;2023-07-31T01:09:38;93910.69;;;24.16;45.03
48035;BME280;33812;46.480;6.834;2023-07-31T01:13:42;93906.34;;;24.15;45.11
48035;BME280;33812;46.480;6.834;2023-07-31T01:17:44;93909.91;;;24.15;44.59
48035;BME280;33812;46.480;6.834;2023-07-31T01:26:33;93899.25;;;24.14;44.74
48035;BME280;33812;46.480;6.834;2023-07-31T01:30:41;93908.38;;;24.14;44.43
48035;BME280;33812;46.480;6.834;2023-07-31T01:34:43;93908.38;;;24.14;44.77
48035;BME280;33812;46.480;6.834;2023-07-31T01:38:45;93907.59;;;24.14;44.73
48035;BME280;33812;46.480;6.834;2023-07-31T01:42:48;93903.28;;;24.13;44.74
48035;BME280;33812;46.480;6.834;2023-07-31T01:46:50;93898.47;;;24.13;44.66
48035;BME280;33812;46.480;6.834;2023-07-31T01:50:52;93895.72;;;24.13;44.27
48035;BME280;33812;46.480;6.834;2023-07-31T01:54:54;93888.63;;;24.12;44.32
48035;BME280;33812;46.480;6.834;2023-07-31T01:58:57;93876.72;;;24.12;44.15
48035;BME280;33812;46.480;6.834;2023-07-31T02:02:59;93880.28;;;24.12;44.60
48035;BME280;33812;46.480;6.834;2023-07-31T02:07:01;93880.75;;;24.11;44.43
48035;BME280;33812;46.480;6.834;2023-07-31T02:11:03;93870.41;;;24.11;44.17
48035;BME280;33812;46.480;6.834;2023-07-31T02:15:07;93874.41;;;24.10;44.50
48035;BME280;33812;46.480;6.834;2023-07-31T02:19:09;93864.88;;;24.11;43.96
48035;BME280;33812;46.480;6.834;2023-07-31T02:23:10;93866.88;;;24.11;44.21
48035;BME280;33812;46.480;6.834;2023-07-31T02:27:12;93860.53;;;24.10;44.17
48035;BME280;33812;46.480;6.834;2023-07-31T02:31:15;93864.53;;;24.09;44.34
48035;BME280;33812;46.480;6.834;2023-07-31T02:35:17;93864.53;;;24.09;43.89
48035;BME280;33812;46.480;6.834;2023-07-31T02:39:19;93867.31;;;24.09;44.36
48035;BME280;33812;46.480;6.834;2023-07-31T02:43:20;93851.88;;;24.08;44.29
48035;BME280;33812;46.480;6.834;2023-07-31T02:47:23;93866.53;;;24.09;43.89
48035;BME280;33812;46.480;6.834;2023-07-31T02:51:25;93862.97;;;24.08;44.33
48035;BME280;33812;46.480;6.834;2023-07-31T02:55:27;93869.78;;;24.07;44.18
48035;BME280;33812;46.480;6.834;2023-07-31T02:59:29;93873.78;;;24.06;44.12
48035;BME280;33812;46.480;6.834;2023-07-31T03:03:32;93889.22;;;24.07;44.09
48035;BME280;33812;46.480;6.834;2023-07-31T03:07:34;93890.44;;;24.06;44.06
48035;BME280;33812;46.480;6.834;2023-07-31T03:11:36;93892.44;;;24.06;43.58
48035;BME280;33812;46.480;6.834;2023-07-31T03:15:37;93902.31;;;24.07;43.85
48035;BME280;33812;46.480;6.834;2023-07-31T03:19:40;93901.97;;;24.05;43.91
48035;BME280;33812;46.480;6.834;2023-07-31T03:23:42;93901.22;;;24.04;44.05
48035;BME280;33812;46.480;6.834;2023-07-31T03:27:44;93898.44;;;24.04;43.96
48035;BME280;33812;46.480;6.834;2023-07-31T03:31:46;93887.34;;;24.04;43.99
48035;BME280;33812;46.480;6.834;2023-07-31T03:35:49;93884.56;;;24.04;43.96
48035;BME280;33812;46.480;6.834;2023-07-31T03:39:51;93876.25;;;24.04;44.07
48035;BME280;33812;46.480;6.834;2023-07-31T03:43:52;93885.78;;;24.03;43.93
48035;BME280;33812;46.480;6.834;2023-07-31T03:47:56;93888.56;;;24.03;43.72
48035;BME280;33812;46.480;6.834;2023-07-31T03:51:59;93891.34;;;24.03;43.72
48035;BME280;33812;46.480;6.834;2023-07-31T03:56:01;93885.78;;;24.03;43.96
48035;BME280;33812;46.480;6.834;2023-07-31T04:00:03;93877.91;;;24.01;43.58
48035;BME280;33812;46.480;6.834;2023-07-31T04:04:05;93885.03;;;24.02;43.51
48035;BME280;33812;46.480;6.834;2023-07-31T04:08:08;93870.38;;;24.02;43.87
48035;BME280;33812;46.480;6.834;2023-07-31T04:12:10;93864.81;;;24.02;43.98
48035;BME280;33812;46.480;6.834;2023-07-31T04:16:12;93879.91;;;24.01;43.73
48035;BME280;33812;46.480;6.834;2023-07-31T04:20:14;93889.00;;;24.01;43.73
48035;BME280;33812;46.480;6.834;2023-07-31T04:24:17;93883.91;;;24.00;44.02
48035;BME280;33812;46.480;6.834;2023-07-31T04:28:24;93890.72;;;23.99;43.64
48035;BME280;33812;46.480;6.834;2023-07-31T04:32:26;93897.81;;;24.00;43.95
48035;BME280;33812;46.480;6.834;2023-07-31T04:36:29;93920.00;;;24.00;43.68
48035;BME280;33812;46.480;6.834;2023-07-31T04:40:32;93918.47;;;23.99;43.97
48035;BME280;33812;46.480;6.834;2023-07-31T04:44:34;93912.91;;;23.99;43.66
48035;BME280;33812;46.480;6.834;2023-07-31T04:48:36;93918.47;;;23.99;44.01
48035;BME280;33812;46.480;6.834;2023-07-31T04:52:38;93907.38;;;23.99;43.93
48035;BME280;33812;46.480;6.834;2023-07-31T04:56:41;93916.91;;;23.98;43.60
48035;BME280;33812;46.480;6.834;2023-07-31T05:00:43;93900.25;;;23.98;43.89
48035;BME280;33812;46.480;6.834;2023-07-31T05:04:44;93908.56;;;23.98;43.84
48035;BME280;33812;46.480;6.834;2023-07-31T05:08:46;93898.72;;;23.97;43.59
48035;BME280;33812;46.480;6.834;2023-07-31T05:12:49;93900.72;;;23.96;44.02
48035;BME280;33812;46.480;6.834;2023-07-31T05:16:51;93897.94;;;23.96;43.94
48035;BME280;33812;46.480;6.834;2023-07-31T05:20:53;93911.03;;;23.96;43.70
48035;BME280;33812;46.480;6.834;2023-07-31T05:24:55;93918.59;;;23.95;43.82
48035;BME280;33812;46.480;6.834;2023-07-31T05:28:58;93904.72;;;23.95;44.03
48035;BME280;33812;46.480;6.834;2023-07-31T05:32:59;93905.19;;;23.94;43.91
48035;BME280;33812;46.480;6.834;2023-07-31T05:37:01;93903.63;;;23.93;44.08
48035;BME280;33812;46.480;6.834;2023-07-31T05:41:03;93924.59;;;23.94;43.48
48035;BME280;33812;46.480;6.834;2023-07-31T05:45:07;93917.03;;;23.94;43.41
48035;BME280;33812;46.480;6.834;2023-07-31T05:49:09;93932.94;;;23.94;43.91
48035;BME280;33812;46.480;6.834;2023-07-31T05:53:11;93934.94;;;23.93;43.78
48035;BME280;33812;46.480;6.834;2023-07-31T05:57:13;93927.38;;;23.94;43.68
48035;BME280;33812;46.480;6.834;2023-07-31T06:01:17;93932.63;;;23.91;43.91
48035;BME280;33812;46.480;6.834;2023-07-31T06:05:19;93918.28;;;23.93;43.51
48035;BME280;33812;46.480;6.834;2023-07-31T06:09:20;93902.06;;;23.91;43.94
48035;BME280;33812;46.480;6.834;2023-07-31T06:13:22;93894.53;;;23.92;43.39
48035;BME280;33812;46.480;6.834;2023-07-31T06:17:25;93892.50;;;23.93;43.48
48035;BME280;33812;46.480;6.834;2023-07-31T06:21:27;93879.09;;;23.91;43.33
48035;BME280;33812;46.480;6.834;2023-07-31T06:25:30;93878.31;;;23.90;43.57
48035;BME280;33812;46.480;6.834;2023-07-31T06:29:32;93883.84;;;23.90;43.40
48035;BME280;33812;46.480;6.834;2023-07-31T06:33:35;93876.78;;;23.89;43.57
48035;BME280;33812;46.480;6.834;2023-07-31T06:37:37;93879.56;;;23.89;43.38
48035;BME280;33812;46.480;6.834;2023-07-31T06:41:40;93876.78;;;23.89;43.37
48035;BME280;33812;46.480;6.834;2023-07-31T06:45:43;93882.31;;;23.89;43.31
48035;BME280;33812;46.480;6.834;2023-07-31T06:49:46;93892.66;;;23.89;43.79
48035;BME280;33812;46.480;6.834;2023-07-31T06:53:48;93890.31;;;23.87;43.26
48035;BME280;33812;46.480;6.834;2023-07-31T06:57:51;93898.66;;;23.87;43.88
48035;BME280;33812;46.480;6.834;2023-07-31T07:01:53;93900.22;;;23.88;43.41
48035;BME280;33812;46.480;6.834;2023-07-31T07:05:56;93891.88;;;23.88;43.43
48035;BME280;33812;46.480;6.834;2023-07-31T07:09:58;93895.88;;;23.87;43.26
48035;BME280;33812;46.480;6.834;2023-07-31T07:14:00;93880.00;;;23.88;43.81
48035;BME280;33812;46.480;6.834;2023-07-31T07:18:02;93882.00;;;23.87;43.40
48035;BME280;33812;46.480;6.834;2023-07-31T07:22:06;93877.69;;;23.86;43.82
48035;BME280;33812;46.480;6.834;2023-07-31T07:26:08;93876.44;;;23.87;43.42
48035;BME280;33812;46.480;6.834;2023-07-31T07:30:10;93863.81;;;23.86;43.73
48035;BME280;33812;46.480;6.834;2023-07-31T07:34:11;93866.59;;;23.86;44.12
48035;BME280;33812;46.480;6.834;2023-07-31T07:38:15;93873.66;;;23.87;43.85
48035;BME280;33812;46.480;6.834;2023-07-31T07:42:16;93864.59;;;23.87;44.07
48035;BME280;33812;46.480;6.834;2023-07-31T07:46:18;93863.03;;;23.86;44.20
48035;BME280;33812;46.480;6.834;2023-07-31T07:50:20;93869.38;;;23.86;44.25
48035;BME280;33812;46.480;6.834;2023-07-31T07:54:23;93864.59;;;23.87;44.14
48035;BME280;33812;46.480;6.834;2023-07-31T07:58:25;93869.38;;;23.86;43.88
48035;BME280;33812;46.480;6.834;2023-07-31T08:02:26;93872.13;;;23.86;44.19
48035;BME280;33812;46.480;6.834;2023-07-31T08:06:28;93867.38;;;23.87;44.15
48035;BME280;33812;46.480;6.834;2023-07-31T08:10:32;93873.66;;;23.87;44.01
48035;BME280;33812;46.480;6.834;2023-07-31T08:14:33;93877.69;;;23.86;44.15
48035;BME280;33812;46.480;6.834;2023-07-31T08:18:36;93875.69;;;23.87;43.89
48035;BME280;33812;46.480;6.834;2023-07-31T08:22:37;93883.25;;;23.86;44.17
48035;BME280;33812;46.480;6.834;2023-07-31T08:26:41;93877.69;;;23.86;43.96
48035;BME280;33812;46.480;6.834;2023-07-31T08:30:43;93872.13;;;23.86;44.43
48035;BME280;33812;46.480;6.834;2023-07-31T08:34:45;93863.81;;;23.86;44.29
48035;BME280;33812;46.480;6.834;2023-07-31T08:38:47;93865.34;;;23.87;44.31
48035;BME280;33812;46.480;6.834;2023-07-31T08:42:53;93870.16;;;23.87;44.43
48035;BME280;33812;46.480;6.834;2023-07-31T08:46:56;93865.34;;;23.87;44.36
48035;BME280;33812;46.480;6.834;2023-07-31T08:51:01;93863.34;;;23.88;43.99
48035;BME280;33812;46.480;6.834;2023-07-31T08:55:04;93860.56;;;23.88;44.43
48035;BME280;33812;46.480;6.834;2023-07-31T08:59:08;93859.78;;;23.87;44.04
48035;BME280;33812;46.480;6.834;2023-07-31T09:03:15;93857.81;;;23.88;44.26
48035;BME280;33812;46.480;6.834;2023-07-31T09:07:17;93841.16;;;23.88;44.49
48035;BME280;33812;46.480;6.834;2023-07-31T09:11:20;93838.38;;;23.88;44.64
48035;BME280;33812;46.480;6.834;2023-07-31T09:15:25;93836.38;;;23.88;44.44
48035;BME280;33812;46.480;6.834;2023-07-31T09:19:28;93835.59;;;23.88;44.25
48035;BME280;33812;46.480;6.834;2023-07-31T09:23:45;93836.38;;;23.88;44.67
48035;BME280;33812;46.480;6.834;2023-07-31T09:27:50;93825.28;;;23.88;44.18
48035;BME280;33812;46.480;6.834;2023-07-31T09:31:54;93814.94;;;23.89;44.48
48035;BME280;33812;46.480;6.834;2023-07-31T09:35:58;93811.41;;;23.88;44.52
48035;BME280;33812;46.480;6.834;2023-07-31T09:40:00;93805.84;;;23.88;44.29
48035;BME280;33812;46.480;6.834;2023-07-31T09:44:02;93804.63;;;23.89;44.57
48035;BME280;33812;46.480;6.834;2023-07-31T09:48:08;93797.53;;;23.88;44.51
48035;BME280;33812;46.480;6.834;2023-07-31T09:52:12;93785.19;;;23.89;44.43
48035;BME280;33812;46.480;6.834;2023-07-31T09:56:16;93774.06;;;23.89;44.43
48035;BME280;33812;46.480;6.834;2023-07-31T10:00:20;93772.84;;;23.90;44.69
48035;BME280;33812;46.480;6.834;2023-07-31T10:04:30;93778.38;;;23.90;44.80
48035;BME280;33812;46.480;6.834;2023-07-31T10:08:32;93775.63;;;23.90;44.54
48035;BME280;33812;46.480;6.834;2023-07-31T10:12:37;93765.28;;;23.91;44.55
48035;BME280;33812;46.480;6.834;2023-07-31T10:16:39;93753.41;;;23.90;44.57
48035;BME280;33812;46.480;6.834;2023-07-31T10:20:45;93753.41;;;23.90;44.78
48035;BME280;33812;46.480;6.834;2023-07-31T10:24:48;93750.63;;;23.90;44.50
48035;BME280;33812;46.480;6.834;2023-07-31T10:28:52;93740.31;;;23.91;44.91
48035;BME280;33812;46.480;6.834;2023-07-31T10:32:56;93739.09;;;23.92;44.72
48035;BME280;33812;46.480;6.834;2023-07-31T10:37:23;93731.53;;;23.93;44.78
48035;BME280;33812;46.480;6.834;2023-07-31T10:41:29;93731.53;;;23.93;45.03
48035;BME280;33812;46.480;6.834;2023-07-31T10:45:33;93727.22;;;23.91;44.75
48035;BME280;33812;46.480;6.834;2023-07-31T10:49:38;93737.09;;;23.93;44.63
48035;BME280;33812;46.480;6.834;2023-07-31T10:53:42;93719.69;;;23.92;45.04
48035;BME280;33812;46.480;6.834;2023-07-31T10:57:45;93732.31;;;23.93;44.76
48035;BME280;33812;46.480;6.834;2023-07-31T11:01:50;93730.31;;;23.94;44.69
48035;BME280;33812;46.480;6.834;2023-07-31T11:05:55;93722.00;;;23.94;45.04
48035;BME280;33812;46.480;6.834;2023-07-31T11:10:03;93727.53;;;23.94;45.06
48035;BME280;33812;46.480;6.834;2023-07-31T11:14:05;93728.75;;;23.93;44.85
48035;BME280;33812;46.480;6.834;2023-07-31T11:18:07;93725.50;;;23.94;44.76
48035;BME280;33812;46.480;6.834;2023-07-31T11:22:11;93724.75;;;23.94;44.88
48035;BME280;33812;46.480;6.834;2023-07-31T11:26:14;93739.41;;;23.94;44.61
48035;BME280;33812;46.480;6.834;2023-07-31T11:30:19;93733.09;;;23.94;44.77
48035;BME280;33812;46.480;6.834;2023-07-31T11:34:20;93739.41;;;23.94;44.79
48035;BME280;33812;46.480;6.834;2023-07-31T11:38:23;93731.84;;;23.95;44.76
48035;BME280;33812;46.480;6.834;2023-07-31T11:42:26;93730.59;;;23.96;44.48
48035;BME280;33812;46.480;6.834;2023-07-31T11:46:31;93738.19;;;23.95;44.55
48035;BME280;33812;46.480;6.834;2023-07-31T11:50:33;93738.94;;;23.96;44.80
48035;BME280;33812;46.480;6.834;2023-07-31T11:54:38;93734.16;;;23.96;44.67
48035;BME280;33812;46.480;6.834;2023-07-31T11:58:43;93721.53;;;23.95;44.64
48035;BME280;33812;46.480;6.834;2023-07-31T12:02:45;93721.06;;;23.97;44.46
48035;BME280;33812;46.480;6.834;2023-07-31T12:06:47;93709.97;;;23.97;44.51
48035;BME280;33812;46.480;6.834;2023-07-31T12:10:51;93704.41;;;23.97;44.51
48035;BME280;33812;46.480;6.834;2023-07-31T12:14:57;93699.63;;;23.97;44.90
48035;BME280;33812;46.480;6.834;2023-07-31T12:18:59;93683.00;;;23.97;44.59
48035;BME280;33812;46.480;6.834;2023-07-31T12:23:00;93687.75;;;23.97;44.52
48035;BME280;33812;46.480;6.834;2023-07-31T12:27:08;93678.19;;;23.98;44.73
48035;BME280;33812;46.480;6.834;2023-07-31T12:31:13;93667.09;;;23.98;44.84
48035;BME280;33812;46.480;6.834;2023-07-31T12:35:15;93652.00;;;23.99;45.03
48035;BME280;33812;46.480;6.834;2023-07-31T12:39:17;93652.00;;;23.99;45.07
48035;BME280;33812;46.480;6.834;2023-07-31T12:43:19;93646.44;;;23.99;44.66
48035;BME280;33812;46.480;6.834;2023-07-31T12:47:22;93629.78;;;23.99;44.63
48035;BME280;33812;46.480;6.834;2023-07-31T12:51:24;93619.44;;;23.99;45.12
48035;BME280;33812;46.480;6.834;2023-07-31T12:55:25;93619.44;;;23.99;44.65
48035;BME280;33812;46.480;6.834;2023-07-31T12:59:27;93631.31;;;24.00;45.09
48035;BME280;33812;46.480;6.834;2023-07-31T13:03:31;93621.00;;;24.00;44.74
48035;BME280;33812;46.480;6.834;2023-07-31T13:07:33;93614.66;;;24.00;45.25
48035;BME280;33812;46.480;6.834;2023-07-31T13:11:34;93620.22;;;24.00;44.96
48035;BME280;33812;46.480;6.834;2023-07-31T13:15:36;93601.56;;;24.00;44.93
48035;BME280;33812;46.480;6.834;2023-07-31T13:19:39;93594.75;;;24.01;44.94
48035;BME280;33812;46.480;6.834;2023-07-31T13:23:41;93594.75;;;24.01;44.99
48035;BME280;33812;46.480;6.834;2023-07-31T13:27:43;93589.22;;;24.01;45.30
48035;BME280;33812;46.480;6.834;2023-07-31T13:31:44;93587.22;;;24.02;44.75
48035;BME280;33812;46.480;6.834;2023-07-31T13:35:47;93581.66;;;24.02;45.23
48035;BME280;33812;46.480;6.834;2023-07-31T13:39:50;93576.91;;;24.02;45.31
48035;BME280;33812;46.480;6.834;2023-07-31T13:43:51;93580.44;;;24.03;44.95
48035;BME280;33812;46.480;6.834;2023-07-31T13:47:53;93581.19;;;24.03;45.35
48035;BME280;33812;46.480;6.834;2023-07-31T13:51:57;93576.44;;;24.04;45.09
48035;BME280;33812;46.480;6.834;2023-07-31T13:55:59;93565.31;;;24.04;45.41
48035;BME280;33812;46.480;6.834;2023-07-31T14:00:01;93559.78;;;24.04;45.15
48035;BME280;33812;46.480;6.834;2023-07-31T14:04:03;93560.53;;;24.05;44.98
48035;BME280;33812;46.480;6.834;2023-07-31T14:08:06;93550.19;;;24.05;45.55
48035;BME280;33812;46.480;6.834;2023-07-31T14:12:08;93552.97;;;24.05;45.15
48035;BME280;33812;46.480;6.834;2023-07-31T14:16:09;93550.97;;;24.06;45.31
48035;BME280;33812;46.480;6.834;2023-07-31T14:20:12;93547.44;;;24.05;45.43
48035;BME280;33812;46.480;6.834;2023-07-31T14:24:15;93537.88;;;24.06;45.36
48035;BME280;33812;46.480;6.834;2023-07-31T14:28:17;93531.09;;;24.07;46.02
48035;BME280;33812;46.480;6.834;2023-07-31T14:32:18;93529.84;;;24.08;45.76
48035;BME280;33812;46.480;6.834;2023-07-31T14:36:20;93526.59;;;24.10;45.68
48035;BME280;33812;46.480;6.834;2023-07-31T14:40:23;93524.59;;;24.10;45.74
48035;BME280;33812;46.480;6.834;2023-07-31T14:44:25;93516.28;;;24.10;45.78
48035;BME280;33812;46.480;6.834;2023-07-31T14:48:27;93516.28;;;24.10;45.86
48035;BME280;33812;46.480;6.834;2023-07-31T14:52:29;93507.16;;;24.10;46.01
48035;BME280;33812;46.480;6.834;2023-07-31T14:56:32;93506.72;;;24.11;46.25
48035;BME280;33812;46.480;6.834;2023-07-31T15:00:34;93509.94;;;24.10;45.83
48035;BME280;33812;46.480;6.834;2023-07-31T15:04:36;93495.31;;;24.09;46.02
48035;BME280;33812;46.480;6.834;2023-07-31T15:08:38;93509.50;;;24.11;46.05
48035;BME280;33812;46.480;6.834;2023-07-31T15:12:43;93505.16;;;24.10;46.40
48035;BME280;33812;46.480;6.834;2023-07-31T15:16:45;93494.84;;;24.11;45.88
48035;BME280;33812;46.480;6.834;2023-07-31T15:20:47;93493.59;;;24.12;45.81
48035;BME280;33812;46.480;6.834;2023-07-31T15:24:49;93494.38;;;24.12;46.25
48035;BME280;33812;46.480;6.834;2023-07-31T15:28:56;93488.81;;;24.12;46.29
48035;BME280;33812;46.480;6.834;2023-07-31T15:32:58;93483.28;;;24.12;45.96
48035;BME280;33812;46.480;6.834;2023-07-31T15:37:00;93484.03;;;24.13;46.02
48035;BME280;33812;46.480;6.834;2023-07-31T15:41:02;93476.47;;;24.13;46.48
48035;BME280;33812;46.480;6.834;2023-07-31T15:45:07;93478.78;;;24.15;47.02
48035;BME280;33812;46.480;6.834;2023-07-31T15:49:09;93474.00;;;24.15;46.40
48035;BME280;33812;46.480;6.834;2023-07-31T15:53:11;93468.78;;;24.18;47.17
48035;BME280;33812;46.480;6.834;2023-07-31T15:57:13;93480.66;;;24.18;47.31
48035;BME280;33812;46.480;6.834;2023-07-31T16:01:16;93475.13;;;24.18;47.97
48035;BME280;33812;46.480;6.834;2023-07-31T16:05:18;93475.41;;;24.20;47.39
48035;BME280;33812;46.480;6.834;2023-07-31T16:09:19;93482.97;;;24.20;47.84
48035;BME280;33812;46.480;6.834;2023-07-31T16:13:21;93495.63;;;24.21;48.08
48035;BME280;33812;46.480;6.834;2023-07-31T16:17:24;93490.84;;;24.21;48.39
48035;BME280;33812;46.480;6.834;2023-07-31T16:21:26;93492.84;;;24.21;48.03
48035;BME280;33812;46.480;6.834;2023-07-31T16:25:28;93488.06;;;24.21;47.65
48035;BME280;33812;46.480;6.834;2023-07-31T16:29:29;93476.19;;;24.21;47.04
48035;BME280;33812;46.480;6.834;2023-07-31T16:33:33;93473.41;;;24.21;46.82
48035;BME280;33812;46.480;6.834;2023-07-31T16:37:34;93474.66;;;24.20;46.62
48035;BME280;33812;46.480;6.834;2023-07-31T16:41:37;93479.44;;;24.19;46.84
48035;BME280;33812;46.480;6.834;2023-07-31T16:45:39;93482.97;;;24.20;46.84
48035;BME280;33812;46.480;6.834;2023-07-31T16:49:42;93477.44;;;24.20;46.28
48035;BME280;33812;46.480;6.834;2023-07-31T16:53:44;93484.50;;;24.21;46.76
48035;BME280;33812;46.480;6.834;2023-07-31T16:57:46;93481.72;;;24.21;46.91
48035;BME280;33812;46.480;6.834;2023-07-31T17:01:48;93475.72;;;24.22;46.88
48035;BME280;33812;46.480;6.834;2023-07-31T17:05:51;93476.50;;;24.23;45.47
48035;BME280;33812;46.480;6.834;2023-07-31T17:09:53;93473.41;;;24.21;44.37
48035;BME280;33812;46.480;6.834;2023-07-31T17:13:56;93460.00;;;24.19;44.37
48035;BME280;33812;46.480;6.834;2023-07-31T17:17:58;93445.34;;;24.19;44.12
48035;BME280;33812;46.480;6.834;2023-07-31T17:22:01;93437.31;;;24.21;43.63
48035;BME280;33812;46.480;6.834;2023-07-31T17:26:03;93446.56;;;24.18;43.21
48035;BME280;33812;46.480;6.834;2023-07-31T17:30:06;93446.09;;;24.19;43.83
48035;BME280;33812;46.480;6.834;2023-07-31T17:34:08;93441.34;;;24.20;43.45
48035;BME280;33812;46.480;6.834;2023-07-31T17:38:12;93423.91;;;24.19;43.33
48035;BME280;33812;46.480;6.834;2023-07-31T17:42:15;93424.38;;;24.18;43.20
48035;BME280;33812;46.480;6.834;2023-07-31T17:46:18;93420.78;;;24.17;43.49
48035;BME280;33812;46.480;6.834;2023-07-31T17:50:20;93427.16;;;24.18;43.03
48035;BME280;33812;46.480;6.834;2023-07-31T17:54:24;93419.25;;;24.16;43.13
48035;BME280;33812;46.480;6.834;2023-07-31T17:58:27;93425.28;;;24.14;41.96
48035;BME280;33812;46.480;6.834;2023-07-31T18:02:29;93424.50;;;24.14;41.54
48035;BME280;33812;46.480;6.834;2023-07-31T18:06:31;93417.69;;;24.15;41.85
48035;BME280;33812;46.480;6.834;2023-07-31T18:10:43;93406.31;;;24.13;39.63
48035;BME280;33812;46.480;6.834;2023-07-31T18:14:45;93415.13;;;24.11;40.65
48035;BME280;33812;46.480;6.834;2023-07-31T18:18:47;93427.44;;;24.10;40.79
48035;BME280;33812;46.480;6.834;2023-07-31T18:22:48;93442.09;;;24.11;41.74
48035;BME280;33812;46.480;6.834;2023-07-31T18:26:52;93450.88;;;24.09;40.03
48035;BME280;33812;46.480;6.834;2023-07-31T18:30:57;93442.56;;;24.09;40.00
48035;BME280;33812;46.480;6.834;2023-07-31T18:34:58;93438.22;;;24.08;40.39
48035;BME280;33812;46.480;6.834;2023-07-31T18:39:00;93436.69;;;24.07;41.07
48035;BME280;33812;46.480;6.834;2023-07-31T18:43:03;93447.97;;;24.03;40.09
48035;BME280;33812;46.480;6.834;2023-07-31T18:47:05;93445.34;;;24.00;39.23
48035;BME280;33812;46.480;6.834;2023-07-31T18:51:07;93448.13;;;24.00;40.18
48035;BME280;33812;46.480;6.834;2023-07-31T18:55:09;93450.16;;;23.90;40.55
48035;BME280;33812;46.480;6.834;2023-07-31T18:59:12;93447.38;;;23.81;40.14
48035;BME280;33812;46.480;6.834;2023-07-31T19:03:14;93448.13;;;23.90;40.59
48035;BME280;33812;46.480;6.834;2023-07-31T19:07:16;93449.38;;;23.89;40.09
48035;BME280;33812;46.480;6.834;2023-07-31T19:11:18;93452.63;;;23.88;40.87
48035;BME280;33812;46.480;6.834;2023-07-31T19:15:21;93439.03;;;23.81;41.49
48035;BME280;33812;46.480;6.834;2023-07-31T19:19:23;93437.06;;;23.81;41.75
48035;BME280;33812;46.480;6.834;2023-07-31T19:23:25;93442.72;;;23.96;42.06
48035;BME280;33812;46.480;6.834;2023-07-31T19:27:26;93450.44;;;24.01;41.99
48035;BME280;33812;46.480;6.834;2023-07-31T19:31:30;93441.63;;;24.03;41.85
48035;BME280;33812;46.480;6.834;2023-07-31T19:35:31;93446.72;;;24.05;42.32
48035;BME280;33812;46.480;6.834;2023-07-31T19:39:33;93449.81;;;24.07;42.88
48035;BME280;33812;46.480;6.834;2023-07-31T19:43:35;93448.13;;;24.09;43.40
48035;BME280;33812;46.480;6.834;2023-07-31T19:47:38;93448.13;;;24.09;43.11
48035;BME280;33812;46.480;6.834;2023-07-31T19:51:40;93450.41;;;24.11;42.96
48035;BME280;33812;46.480;6.834;2023-07-31T19:55:42;93439.78;;;24.09;42.70
48035;BME280;33812;46.480;6.834;2023-07-31T19:59:44;93440.53;;;24.10;42.71
48035;BME280;33812;46.480;6.834;2023-07-31T20:03:47;93437.75;;;24.10;42.75
48035;BME280;33812;46.480;6.834;2023-07-31T20:07:50;93422.66;;;24.11;42.54
48035;BME280;33812;46.480;6.834;2023-07-31T20:11:52;93413.56;;;24.10;42.97
48035;BME280;33812;46.480;6.834;2023-07-31T20:15:55;93410.78;;;24.10;42.95
48035;BME280;33812;46.480;6.834;2023-07-31T20:19:58;93420.66;;;24.11;42.93
48035;BME280;33812;46.480;6.834;2023-07-31T20:24:00;93408.00;;;24.10;42.87
48035;BME280;33812;46.480;6.834;2023-07-31T20:28:02;93414.34;;;24.11;42.79
48035;BME280;33812;46.480;6.834;2023-07-31T20:32:04;93415.13;;;24.11;43.01
48035;BME280;33812;46.480;6.834;2023-07-31T20:36:08;93418.63;;;24.12;43.46
48035;BME280;33812;46.480;6.834;2023-07-31T20:40:11;93416.63;;;24.12;42.95
48035;BME280;33812;46.480;6.834;2023-07-31T20:44:13;93416.63;;;24.12;43.18
48035;BME280;33812;46.480;6.834;2023-07-31T20:48:15;93406.31;;;24.13;43.35
48035;BME280;33812;46.480;6.834;2023-07-31T20:52:18;93405.53;;;24.12;42.95
48035;BME280;33812;46.480;6.834;2023-07-31T20:56:20;93401.97;;;24.12;43.11
48035;BME280;33812;46.480;6.834;2023-07-31T21:00:21;93401.66;;;24.10;41.93
48035;BME280;33812;46.480;6.834;2023-07-31T21:04:23;93395.38;;;24.09;42.72
48035;BME280;33812;46.480;6.834;2023-07-31T21:08:26;93394.13;;;24.10;42.89
48035;BME280;33812;46.480;6.834;2023-07-31T21:12:28;93381.50;;;24.09;42.30
48035;BME280;33812;46.480;6.834;2023-07-31T21:16:30;93382.72;;;24.08;42.80
48035;BME280;33812;46.480;6.834;2023-07-31T21:20:32;93377.94;;;24.09;42.39
48035;BME280;33812;46.480;6.834;2023-07-31T21:24:35;93374.69;;;24.10;43.64
48035;BME280;33812;46.480;6.834;2023-07-31T21:28:36;93370.69;;;24.11;43.89